Home > Products > Valid Products > TAF

000
FTUS45 KBYZ 191736
TAFLVM
TAF
KLVM 191736Z 1918/2018 27021G30KT P6SM BKN200
     FM192200 25020G32KT P6SM VCSH SCT050 BKN100
     FM200200 25015G25KT P6SM VCSH FEW040 BKN060
     FM201000 24021G31KT P6SM BKN070=



000
FTUS45 KBYZ 191736
TAFMLS
TAF
KMLS 191736Z 1918/2018 16007KT P6SM SCT150
     FM200900 25010KT P6SM VCSH BKN060=



000
FTUS45 KBYZ 191736
TAFSHR
TAF
KSHR 191736Z 1918/2018 VRB03KT P6SM SCT120
     FM200500 30010KT P6SM BKN070 OVC150=



000
FTUS45 KBYZ 191736
TAFBIL
TAF
KBIL 191736Z 1918/2018 23013KT P6SM FEW070 BKN100
     FM200200 23015KT P6SM BKN070 OVC200
     FM200700 25013KT P6SM VCSH BKN050=



000
FTUS45 KBYZ 191736
TAFBIL
TAF
KBIL 191736Z 1918/2018 23013KT P6SM FEW070 BKN100
     FM200200 23015KT P6SM BKN070 OVC200
     FM200700 25013KT P6SM VCSH BKN050=



000
FTUS45 KBYZ 191736
TAFMLS
TAF
KMLS 191736Z 1918/2018 16007KT P6SM SCT150
     FM200900 25010KT P6SM VCSH BKN060=



000
FTUS45 KBYZ 191736
TAFLVM
TAF
KLVM 191736Z 1918/2018 27021G30KT P6SM BKN200
     FM192200 25020G32KT P6SM VCSH SCT050 BKN100
     FM200200 25015G25KT P6SM VCSH FEW040 BKN060
     FM201000 24021G31KT P6SM BKN070=



000
FTUS45 KBYZ 191127
TAFLVM
TAF
KLVM 191127Z 1912/2012 25020G32KT P6SM SCT070 BKN200
     FM192000 25020G32KT P6SM VCSH SCT070 BKN200
     FM200200 25015G25KT P6SM VCSH FEW040 BKN060=



000
FTUS45 KBYZ 191127
TAFBIL
TAF
KBIL 191127Z 1912/2012 24015G25KT P6SM SCT090 BKN250
     FM200200 23015KT P6SM VCSH BKN070 OVC200=



000
FTUS45 KBYZ 191127
TAFMLS
TAF
KMLS 191127Z 1912/2012 25010KT P6SM SCT080
     FM200900 25010KT P6SM VCSH BKN060=



000
FTUS45 KBYZ 191127
TAFSHR
TAF
KSHR 191127Z 1912/2012 VRB05KT P6SM SCT080 BKN250
     FM200500 30010KT P6SM VCSH BKN050 OVC150=



000
FTUS45 KBYZ 191127
TAFLVM
TAF
KLVM 191127Z 1912/2012 25020G32KT P6SM SCT070 BKN200
     FM192000 25020G32KT P6SM VCSH SCT070 BKN200
     FM200200 25015G25KT P6SM VCSH FEW040 BKN060=



000
FTUS45 KBYZ 191127
TAFSHR
TAF
KSHR 191127Z 1912/2012 VRB05KT P6SM SCT080 BKN250
     FM200500 30010KT P6SM VCSH BKN050 OVC150=



000
FTUS45 KBYZ 191127
TAFMLS
TAF
KMLS 191127Z 1912/2012 25010KT P6SM SCT080
     FM200900 25010KT P6SM VCSH BKN060=



000
FTUS45 KBYZ 191127
TAFBIL
TAF
KBIL 191127Z 1912/2012 24015G25KT P6SM SCT090 BKN250
     FM200200 23015KT P6SM VCSH BKN070 OVC200=



000
FTUS45 KBYZ 190520
TAFBIL
TAF
KBIL 190520Z 1906/2006 23017G24KT P6SM SCT080 BKN150
     FM200000 24016KT P6SM BKN080=



000
FTUS45 KBYZ 190520
TAFMLS
TAF
KMLS 190520Z 1906/2006 18006KT P6SM FEW060 BKN080
     FM191900 16006KT P6SM FEW100 SCT200=



000
FTUS45 KBYZ 190520
TAFLVM
TAF
KLVM 190520Z 1906/2006 23021G32KT P6SM SCT070 BKN090
     FM200300 24021G32KT P6SM VCSH BKN050 OVC090=



000
FTUS45 KBYZ 190520
TAFSHR
TAF
KSHR 190520Z 1906/2006 VRB04KT P6SM FEW100 SCT200
     FM200100 VRB04KT P6SM FEW060 BKN080=



000
FTUS45 KBYZ 190520
TAFBIL
TAF
KBIL 190520Z 1906/2006 23017G24KT P6SM SCT080 BKN150
     FM200000 24016KT P6SM BKN080=



000
FTUS45 KBYZ 190520
TAFLVM
TAF
KLVM 190520Z 1906/2006 23021G32KT P6SM SCT070 BKN090
     FM200300 24021G32KT P6SM VCSH BKN050 OVC090=



000
FTUS45 KBYZ 190520
TAFMLS
TAF
KMLS 190520Z 1906/2006 18006KT P6SM FEW060 BKN080
     FM191900 16006KT P6SM FEW100 SCT200=



000
FTUS45 KBYZ 190520
TAFSHR
TAF
KSHR 190520Z 1906/2006 VRB04KT P6SM FEW100 SCT200
     FM200100 VRB04KT P6SM FEW060 BKN080=



000
FTUS45 KBYZ 182334
TAFLVM
TAF
KLVM 182334Z 1900/1924 24020G32KT P6SM SCT080 BKN100=



000
FTUS45 KBYZ 182334
TAFMLS
TAF
KMLS 182334Z 1900/1924 19006KT P6SM FEW100 SCT200=



000
FTUS45 KBYZ 182334
TAFBIL
TAF
KBIL 182334Z 1900/1924 23016G24KT P6SM SCT090 BKN150=



000
FTUS45 KBYZ 182334
TAFSHR
TAF
KSHR 182334Z 1900/1924 VRB04KT P6SM FEW100 SCT200=



000
FTUS45 KBYZ 182334
TAFLVM
TAF
KLVM 182334Z 1900/1924 24020G32KT P6SM SCT080 BKN100=



000
FTUS45 KBYZ 182334
TAFBIL
TAF
KBIL 182334Z 1900/1924 23016G24KT P6SM SCT090 BKN150=



000
FTUS45 KBYZ 182334
TAFSHR
TAF
KSHR 182334Z 1900/1924 VRB04KT P6SM FEW100 SCT200=



000
FTUS45 KBYZ 182334
TAFMLS
TAF
KMLS 182334Z 1900/1924 19006KT P6SM FEW100 SCT200=



000
FTUS45 KBYZ 181726
TAFMLS
TAF
KMLS 181726Z 1818/1918 18007KT P6SM SCT200=



000
FTUS45 KBYZ 181726
TAFLVM
TAF
KLVM 181726Z 1818/1918 23020G32KT P6SM VCSH SCT080 BKN200=



000
FTUS45 KBYZ 181726
TAFBIL
TAF
KBIL 181726Z 1818/1918 23016KT P6SM FEW090 SCT200=



000
FTUS45 KBYZ 181726
TAFSHR
TAF
KSHR 181726Z 1818/1918 VRB04KT P6SM FEW100 SCT200=



000
FTUS45 KBYZ 181726
TAFLVM
TAF
KLVM 181726Z 1818/1918 23020G32KT P6SM VCSH SCT080 BKN200=



000
FTUS45 KBYZ 181726
TAFMLS
TAF
KMLS 181726Z 1818/1918 18007KT P6SM SCT200=



000
FTUS45 KBYZ 181726
TAFSHR
TAF
KSHR 181726Z 1818/1918 VRB04KT P6SM FEW100 SCT200=



000
FTUS45 KBYZ 181726
TAFBIL
TAF
KBIL 181726Z 1818/1918 23016KT P6SM FEW090 SCT200=



000
FTUS45 KBYZ 181638 AAA
TAFLVM
TAF AMD
KLVM 181638Z 1817/1912 24020G30KT P6SM VCSH SCT070 BKN200=



000
FTUS45 KBYZ 181638 AAA
TAFLVM
TAF AMD
KLVM 181638Z 1817/1912 24020G30KT P6SM VCSH SCT070 BKN200=



000
FTUS45 KBYZ 181120
TAFSHR
TAF
KSHR 181120Z 1812/1912 VRB05KT P6SM SCT070 SCT250=



000
FTUS45 KBYZ 181120
TAFLVM
TAF
KLVM 181120Z 1812/1912 25015G28KT P6SM VCSH SCT060 BKN250=



000
FTUS45 KBYZ 181120
TAFMLS
TAF
KMLS 181120Z 1812/1912 VRB05KT P6SM VCFG FEW020 OVC070
     FM181900 27012KT P6SM SCT070 SCT250=



000
FTUS45 KBYZ 181120
TAFMLS
TAF
KMLS 181120Z 1812/1912 VRB05KT P6SM VCFG FEW020 OVC070
     FM181900 27012KT P6SM SCT070 SCT250=



000
FTUS45 KBYZ 181120
TAFSHR
TAF
KSHR 181120Z 1812/1912 VRB05KT P6SM SCT070 SCT250=



000
FTUS45 KBYZ 181120
TAFBIL
TAF
KBIL 181120Z 1812/1912 23014KT P6SM SCT080 SCT250=



000
FTUS45 KBYZ 181120
TAFLVM
TAF
KLVM 181120Z 1812/1912 25015G28KT P6SM VCSH SCT060 BKN250=



000
FTUS45 KBYZ 180522
TAFBIL
TAF
KBIL 180522Z 1806/1906 23013KT P6SM BKN080
     FM182300 22011KT P6SM BKN100=



000
FTUS45 KBYZ 180522
TAFMLS
TAF
KMLS 180522Z 1806/1906 13008KT P6SM VCSH BKN020 OVC030
     FM181300 VRB05KT P6SM SCT003 BKN020
     FM181800 24010KT P6SM SCT003 OVC040
     FM190300 24006KT P6SM OVC060 WS015/28030KT=



000
FTUS45 KBYZ 180522
TAFSHR
TAF
KSHR 180522Z 1806/1906 VRB05KT P6SM SCT080
     FM190300 29006KT P6SM OVC080=



000
FTUS45 KBYZ 180522
TAFLVM
TAF
KLVM 180522Z 1806/1906 26018KT P6SM SCT060 BKN250
     FM190000 24011KT P6SM BKN100
     FM190400 26017G30KT P6SM BKN060=



000
FTUS45 KBYZ 180522
TAFLVM
TAF
KLVM 180522Z 1806/1906 26018KT P6SM SCT060 BKN250
     FM190000 24011KT P6SM BKN100
     FM190400 26017G30KT P6SM BKN060=



000
FTUS45 KBYZ 180522
TAFMLS
TAF
KMLS 180522Z 1806/1906 13008KT P6SM VCSH BKN020 OVC030
     FM181300 VRB05KT P6SM SCT003 BKN020
     FM181800 24010KT P6SM SCT003 OVC040
     FM190300 24006KT P6SM OVC060 WS015/28030KT=



000
FTUS45 KBYZ 180522
TAFBIL
TAF
KBIL 180522Z 1806/1906 23013KT P6SM BKN080
     FM182300 22011KT P6SM BKN100=



000
FTUS45 KBYZ 180522
TAFSHR
TAF
KSHR 180522Z 1806/1906 VRB05KT P6SM SCT080
     FM190300 29006KT P6SM OVC080=



000
FTUS45 KBYZ 180304 AAA
TAFMLS
TAF AMD
KMLS 180304Z 1803/1824 13004KT P6SM VCSH BKN020
     FM181000 VRB05KT P6SM VCFG SCT003 OVC020
     FM181800 24010KT P6SM VCFG SCT003 OVC020=



000
FTUS45 KBYZ 180304 AAA
TAFMLS
TAF AMD
KMLS 180304Z 1803/1824 13004KT P6SM VCSH BKN020
     FM181000 VRB05KT P6SM VCFG SCT003 OVC020
     FM181800 24010KT P6SM VCFG SCT003 OVC020=



000
FTUS45 KBYZ 180303 AAA
TAFLVM
TAF AMD
KLVM 180303Z 1803/1824 26017G30KT P6SM BKN060
     FM180600 24015KT P6SM BKN100=



000
FTUS45 KBYZ 180303 AAA
TAFLVM
TAF AMD
KLVM 180303Z 1803/1824 26017G30KT P6SM BKN060
     FM180600 24015KT P6SM BKN100=



000
FTUS45 KBYZ 172328
TAFLVM
TAF
KLVM 172328Z 1800/1824 28011KT P6SM BKN060
     FM180600 24015KT P6SM BKN100=



000
FTUS45 KBYZ 172328
TAFSHR
TAF
KSHR 172328Z 1800/1824 VRB05KT P6SM BKN050=



000
FTUS45 KBYZ 172328
TAFMLS
TAF
KMLS 172328Z 1800/1824 13004KT P6SM VCSH BKN012
     FM181000 VRB05KT P6SM VCFG SCT003 OVC020
     FM181800 24010KT P6SM VCFG SCT003 OVC020=



000
FTUS45 KBYZ 172328
TAFBIL
TAF
KBIL 172328Z 1800/1824 24012KT P6SM BKN080=



000
FTUS45 KBYZ 172328
TAFSHR
TAF
KSHR 172328Z 1800/1824 VRB05KT P6SM BKN050=



000
FTUS45 KBYZ 172328
TAFBIL
TAF
KBIL 172328Z 1800/1824 24012KT P6SM BKN080=



000
FTUS45 KBYZ 172328
TAFLVM
TAF
KLVM 172328Z 1800/1824 28011KT P6SM BKN060
     FM180600 24015KT P6SM BKN100=



000
FTUS45 KBYZ 172328
TAFMLS
TAF
KMLS 172328Z 1800/1824 13004KT P6SM VCSH BKN012
     FM181000 VRB05KT P6SM VCFG SCT003 OVC020
     FM181800 24010KT P6SM VCFG SCT003 OVC020=



000
FTUS45 KBYZ 171959 AAB
TAFSHR
TAF AMD
KSHR 171959Z 1720/1818 VRB04KT P6SM BKN080
     FM180000 VRB05KT P6SM BKN050=



000
FTUS45 KBYZ 171959 AAB
TAFSHR
TAF AMD
KSHR 171959Z 1720/1818 VRB04KT P6SM BKN080
     FM180000 VRB05KT P6SM BKN050=



000
FTUS45 KBYZ 171831 AAA
TAFBIL
TAF AMD
KBIL 171831Z 1719/1818 22006KT P6SM -SN BKN050
     FM172300 24010KT P6SM BKN050
     FM180600 24012KT P6SM BKN080=



000
FTUS45 KBYZ 171831 AAA
TAFBIL
TAF AMD
KBIL 171831Z 1719/1818 22006KT P6SM -SN BKN050
     FM172300 24010KT P6SM BKN050
     FM180600 24012KT P6SM BKN080=



000
FTUS45 KBYZ 171828 AAA
TAFSHR
TAF AMD
KSHR 171828Z 1718/1818 VRB04KT 5SM HZ SCT002 SCT050
     FM180000 VRB05KT P6SM BKN050=



000
FTUS45 KBYZ 171828 AAA
TAFSHR
TAF AMD
KSHR 171828Z 1718/1818 VRB04KT 5SM HZ SCT002 SCT050
     FM180000 VRB05KT P6SM BKN050=



000
FTUS45 KBYZ 171737
TAFSHR
TAF
KSHR 171737Z 1718/1818 VRB04KT 1/2SM FZFG VV001
     FM172100 VRB04KT 2SM BR SCT002 BKN030
     FM180000 VRB05KT P6SM BKN050=



000
FTUS45 KBYZ 171737
TAFBIL
TAF
KBIL 171737Z 1718/1818 22006KT 4SM BR SCT005 BKN030
     FM172000 23010KT P6SM BKN040
     FM172300 24010KT P6SM BKN050
     FM180600 24012KT P6SM BKN080=



000
FTUS45 KBYZ 171737
TAFLVM
TAF
KLVM 171737Z 1718/1818 24014KT P6SM BKN080
     FM180600 24015KT P6SM BKN100=



000
FTUS45 KBYZ 171737
TAFMLS
TAF
KMLS 171737Z 1718/1818 12006KT P6SM OVC010
     FM172000 13004KT P6SM OVC015
     FM180000 13005KT P6SM OVC020=



000
FTUS45 KBYZ 171737
TAFSHR
TAF
KSHR 171737Z 1718/1818 VRB04KT 1/2SM FZFG VV001
     FM172100 VRB04KT 2SM BR SCT002 BKN030
     FM180000 VRB05KT P6SM BKN050=



000
FTUS45 KBYZ 171737
TAFBIL
TAF
KBIL 171737Z 1718/1818 22006KT 4SM BR SCT005 BKN030
     FM172000 23010KT P6SM BKN040
     FM172300 24010KT P6SM BKN050
     FM180600 24012KT P6SM BKN080=



000
FTUS45 KBYZ 171737
TAFLVM
TAF
KLVM 171737Z 1718/1818 24014KT P6SM BKN080
     FM180600 24015KT P6SM BKN100=



000
FTUS45 KBYZ 171737
TAFMLS
TAF
KMLS 171737Z 1718/1818 12006KT P6SM OVC010
     FM172000 13004KT P6SM OVC015
     FM180000 13005KT P6SM OVC020=



000
FTUS45 KBYZ 171610 AAB
TAFBIL
TAF AMD
KBIL 171610Z 1716/1812 23010KT 2SM BR SCT006 OVC030
      TEMPO 1716/1718 1 1/2SM -SN BR
     FM171800 22006KT P6SM BKN010
     FM172300 24010KT P6SM BKN050
     FM180600 24012KT P6SM BKN080=



000
FTUS45 KBYZ 171606 AAA
TAFSHR
TAF AMD
KSHR 171606Z 1716/1812 00000KT 1/4SM FZFG VV001
     FM171800 VRB04KT P6SM SCT060=



000
FTUS45 KBYZ 171606 AAA
TAFSHR
TAF AMD
KSHR 171606Z 1716/1812 00000KT 1/4SM FZFG VV001
     FM171800 VRB04KT P6SM SCT060=



000
FTUS45 KBYZ 171512 AAA
TAFBIL
TAF AMD
KBIL 171512Z 1715/1812 24005KT 2SM BR SCT002 BKN035
     FM171600 23007KT P6SM SCT006 OVC010
     FM171800 22006KT P6SM BKN010
     FM172300 24010KT P6SM BKN050
     FM180600 24012KT P6SM BKN080=



000
FTUS45 KBYZ 171512 AAA
TAFBIL
TAF AMD
KBIL 171512Z 1715/1812 24005KT 2SM BR SCT002 BKN035
     FM171600 23007KT P6SM SCT006 OVC010
     FM171800 22006KT P6SM BKN010
     FM172300 24010KT P6SM BKN050
     FM180600 24012KT P6SM BKN080=



000
FTUS45 KBYZ 171506 AAA
TAFMLS
TAF AMD
KMLS 171506Z 1715/1812 12006KT P6SM OVC010
     FM172000 13004KT P6SM OVC015
     FM180000 13005KT P6SM OVC020=



000
FTUS45 KBYZ 171506 AAA
TAFMLS
TAF AMD
KMLS 171506Z 1715/1812 12006KT P6SM OVC010
     FM172000 13004KT P6SM OVC015
     FM180000 13005KT P6SM OVC020=



000
FTUS45 KBYZ 171222 AAA
TAFLVM
TAF AMD
KLVM 171222Z 1712/1812 24004KT P6SM -SN OVC035
      TEMPO 1712/1716 2SM -SN BR OVC018
     FM171900 22014KT P6SM BKN080
     FM180600 24015KT P6SM BKN100=



000
FTUS45 KBYZ 171139
TAFLVM
TAF
KLVM 171139Z 1712/1812 24004KT P6SM -SN OVC035
     FM171900 22014KT P6SM BKN080
     FM180600 24015KT P6SM BKN100=



000
FTUS45 KBYZ 171139
TAFBIL
TAF
KBIL 171139Z 1712/1812 24005KT 5SM BR OVC004
     FM171600 23007KT P6SM BKN006 OVC010
     FM171800 22006KT P6SM BKN010
     FM172300 24010KT P6SM BKN050
     FM180600 24012KT P6SM BKN080=



000
FTUS45 KBYZ 171139
TAFMLS
TAF
KMLS 171139Z 1712/1812 11004KT P6SM OVC011
     FM171400 12006KT P6SM BKN005 OVC010
     FM172000 13004KT P6SM OVC015
     FM180000 13005KT P6SM OVC020=



000
FTUS45 KBYZ 171139
TAFSHR
TAF
KSHR 171139Z 1712/1812 00000KT 1/2SM FZFG VV002
     FM171500 VRB03KT P6SM BKN005
     FM171800 VRB04KT P6SM SCT060=



000
FTUS45 KBYZ 171139
TAFBIL
TAF
KBIL 171139Z 1712/1812 24005KT 5SM BR OVC004
     FM171600 23007KT P6SM BKN006 OVC010
     FM171800 22006KT P6SM BKN010
     FM172300 24010KT P6SM BKN050
     FM180600 24012KT P6SM BKN080=



000
FTUS45 KBYZ 171139
TAFMLS
TAF
KMLS 171139Z 1712/1812 11004KT P6SM OVC011
     FM171400 12006KT P6SM BKN005 OVC010
     FM172000 13004KT P6SM OVC015
     FM180000 13005KT P6SM OVC020=



000
FTUS45 KBYZ 171139
TAFLVM
TAF
KLVM 171139Z 1712/1812 24004KT P6SM -SN OVC035
     FM171900 22014KT P6SM BKN080
     FM180600 24015KT P6SM BKN100=



000
FTUS45 KBYZ 171139
TAFSHR
TAF
KSHR 171139Z 1712/1812 00000KT 1/2SM FZFG VV002
     FM171500 VRB03KT P6SM BKN005
     FM171800 VRB04KT P6SM SCT060=



000
FTUS45 KBYZ 171018 AAC
TAFBIL
TAF AMD
KBIL 171018Z 1710/1806 00000KT 6SM BCFG BKN005 BKN040 OVC070
     FM171200 24004KT P6SM BKN045 OVC060
     FM171600 25010KT 3SM BR OVC005
     FM171800 22006KT P6SM BKN010
     FM172300 24010KT P6SM BKN050=



000
FTUS45 KBYZ 171018 AAC
TAFBIL
TAF AMD
KBIL 171018Z 1710/1806 00000KT 6SM BCFG BKN005 BKN040 OVC070
     FM171200 24004KT P6SM BKN045 OVC060
     FM171600 25010KT 3SM BR OVC005
     FM171800 22006KT P6SM BKN010
     FM172300 24010KT P6SM BKN050=



000
FTUS45 KBYZ 171003 AAB
TAFBIL
TAF AMD
KBIL 171003Z 1710/1806 00000KT 6SM BCFG FEW004 BKN045 OVC070
     FM171200 24004KT P6SM BKN045 OVC060
     FM171600 25010KT 3SM BR OVC005
     FM171800 22006KT P6SM BKN010
     FM172300 24010KT P6SM BKN050=



000
FTUS45 KBYZ 171003 AAB
TAFBIL
TAF AMD
KBIL 171003Z 1710/1806 00000KT 6SM BCFG FEW004 BKN045 OVC070
     FM171200 24004KT P6SM BKN045 OVC060
     FM171600 25010KT 3SM BR OVC005
     FM171800 22006KT P6SM BKN010
     FM172300 24010KT P6SM BKN050=



000
FTUS45 KBYZ 170905 AAA
TAFBIL
TAF AMD
KBIL 170905Z 1709/1806 05003KT 6SM BR OVC004
     FM171600 25010KT 3SM BR OVC005
     FM171800 22006KT P6SM BKN010
     FM172300 24010KT P6SM BKN050=



000
FTUS45 KBYZ 170905 AAA
TAFBIL
TAF AMD
KBIL 170905Z 1709/1806 05003KT 6SM BR OVC004
     FM171600 25010KT 3SM BR OVC005
     FM171800 22006KT P6SM BKN010
     FM172300 24010KT P6SM BKN050=



000
FTUS45 KBYZ 170905 AAA
TAFBIL
TAF AMD
KBIL 170905Z 1709/1806 05003KT 6SM BR OVC004
     FM171600 25010KT 3SM BR OVC005
     FM171800 22006KT P6SM BKN010
     FM172300 24010KT P6SM BKN050=



000
FTUS45 KBYZ 170905 AAA
TAFBIL
TAF AMD
KBIL 170905Z 1709/1806 05003KT 6SM BR OVC004
     FM171600 25010KT 3SM BR OVC005
     FM171800 22006KT P6SM BKN010
     FM172300 24010KT P6SM BKN050=



000
FTUS45 KBYZ 170757 AAE
TAFSHR
TAF AMD
KSHR 170757Z 1708/1806 05004KT 2SM BR OVC003
      TEMPO 1708/1711 1/2SM FZFG VV001
     FM171500 VRB03KT P6SM BKN005
     FM171800 VRB04KT P6SM SCT060=



000
FTUS45 KBYZ 170757 AAE
TAFSHR
TAF AMD
KSHR 170757Z 1708/1806 05004KT 2SM BR OVC003
      TEMPO 1708/1711 1/2SM FZFG VV001
     FM171500 VRB03KT P6SM BKN005
     FM171800 VRB04KT P6SM SCT060=



000
FTUS45 KBYZ 170757 AAE
TAFSHR
TAF AMD
KSHR 170757Z 1708/1806 05004KT 2SM BR OVC003
      TEMPO 1708/1711 1/2SM FZFG VV001
     FM171500 VRB03KT P6SM BKN005
     FM171800 VRB04KT P6SM SCT060=



000
FTUS45 KBYZ 170757 AAE
TAFSHR
TAF AMD
KSHR 170757Z 1708/1806 05004KT 2SM BR OVC003
      TEMPO 1708/1711 1/2SM FZFG VV001
     FM171500 VRB03KT P6SM BKN005
     FM171800 VRB04KT P6SM SCT060=



000
FTUS45 KBYZ 170718 AAD
TAFSHR
TAF AMD
KSHR 170718Z 1707/1806 05004KT 2SM BR OVC003
      TEMPO 1707/1711 1/2SM FZFG VV002
     FM171500 VRB03KT P6SM BKN005
     FM171800 VRB04KT P6SM SCT060=



000
FTUS45 KBYZ 170718 AAD
TAFSHR
TAF AMD
KSHR 170718Z 1707/1806 05004KT 2SM BR OVC003
      TEMPO 1707/1711 1/2SM FZFG VV002
     FM171500 VRB03KT P6SM BKN005
     FM171800 VRB04KT P6SM SCT060=



000
FTUS45 KBYZ 170718 AAD
TAFSHR
TAF AMD
KSHR 170718Z 1707/1806 05004KT 2SM BR OVC003
      TEMPO 1707/1711 1/2SM FZFG VV002
     FM171500 VRB03KT P6SM BKN005
     FM171800 VRB04KT P6SM SCT060=



000
FTUS45 KBYZ 170709 AAB
TAFSHR
TAF AMD
KSHR 170709Z 1707/1806 05004KT 2SM BR OVC003
      TEMPO 1707/1711 1/2SM FZFG OVC001
     FM171500 VRB03KT P6SM BKN005
     FM171800 VRB04KT P6SM SCT060=



000
FTUS45 KBYZ 170709 AAB
TAFSHR
TAF AMD
KSHR 170709Z 1707/1806 05004KT 2SM BR OVC003
      TEMPO 1707/1711 1/2SM FZFG OVC001
     FM171500 VRB03KT P6SM BKN005
     FM171800 VRB04KT P6SM SCT060=



000
FTUS45 KBYZ 170709 AAC
TAFSHR
TAF AMD
KSHR 170709Z 1707/1806 05004KT 2SM BR OVC003
      TEMPO 1707/1711 1/2SM FZFG OVC002
     FM171500 VRB03KT P6SM BKN005
     FM171800 VRB04KT P6SM SCT060=



000
FTUS45 KBYZ 170709 AAC
TAFSHR
TAF AMD
KSHR 170709Z 1707/1806 05004KT 2SM BR OVC003
      TEMPO 1707/1711 1/2SM FZFG OVC002
     FM171500 VRB03KT P6SM BKN005
     FM171800 VRB04KT P6SM SCT060=



000
FTUS45 KBYZ 170628 AAA
TAFSHR
TAF AMD
KSHR 170628Z 1706/1806 05004KT 2SM BR OVC003
      TEMPO 1707/1711 1 1/2SM BR OVC001
     FM171500 VRB03KT P6SM BKN005
     FM171800 VRB04KT P6SM SCT060=



000
FTUS45 KBYZ 170628 AAA
TAFSHR
TAF AMD
KSHR 170628Z 1706/1806 05004KT 2SM BR OVC003
      TEMPO 1707/1711 1 1/2SM BR OVC001
     FM171500 VRB03KT P6SM BKN005
     FM171800 VRB04KT P6SM SCT060=



000
FTUS45 KBYZ 170538
TAFLVM
TAF
KLVM 170538Z 1706/1806 24003KT P6SM -SHSN SCT080 OVC100
     FM171200 28007KT P6SM SCT070 BKN080
     FM171900 22014KT P6SM BKN080=



000
FTUS45 KBYZ 170538
TAFBIL
TAF
KBIL 170538Z 1706/1806 24005KT 6SM BR OVC005
     FM170800 22005KT 1SM BR OVC004
     FM171600 25010KT 3SM BR OVC005
     FM171800 22006KT P6SM BKN010
     FM172300 24010KT P6SM BKN050=



000
FTUS45 KBYZ 170538
TAFSHR
TAF
KSHR 170538Z 1706/1806 08003KT 6SM BR VCFG OVC002
     FM171500 VRB03KT P6SM BKN005
     FM171800 VRB04KT P6SM SCT060=



000
FTUS45 KBYZ 170538
TAFMLS
TAF
KMLS 170538Z 1706/1806 12010KT P6SM OVC007
     FM171400 12006KT P6SM BKN005 OVC008
     FM172000 13004KT P6SM OVC015=



000
FTUS45 KBYZ 170538
TAFSHR
TAF
KSHR 170538Z 1706/1806 08003KT 6SM BR VCFG OVC002
     FM171500 VRB03KT P6SM BKN005
     FM171800 VRB04KT P6SM SCT060=



000
FTUS45 KBYZ 170538
TAFMLS
TAF
KMLS 170538Z 1706/1806 12010KT P6SM OVC007
     FM171400 12006KT P6SM BKN005 OVC008
     FM172000 13004KT P6SM OVC015=



000
FTUS45 KBYZ 170538
TAFBIL
TAF
KBIL 170538Z 1706/1806 24005KT 6SM BR OVC005
     FM170800 22005KT 1SM BR OVC004
     FM171600 25010KT 3SM BR OVC005
     FM171800 22006KT P6SM BKN010
     FM172300 24010KT P6SM BKN050=



000
FTUS45 KBYZ 170538
TAFLVM
TAF
KLVM 170538Z 1706/1806 24003KT P6SM -SHSN SCT080 OVC100
     FM171200 28007KT P6SM SCT070 BKN080
     FM171900 22014KT P6SM BKN080=



000
FTUS45 KBYZ 170204 AAC
TAFLVM
TAF AMD
KLVM 170204Z 1702/1724 VRB03KT P6SM SCT005 BKN080
     FM170600 21011KT P6SM VCSH SCT010 BKN050
     FM171900 22014KT P6SM SCT030=



000
FTUS45 KBYZ 170154 AAB
TAFLVM
TAF AMD
KLVM 170154Z 1702/1724 VRB03KT P6SM SCT005 BKN080
      TEMPO 1702/1706 10007KT 6SM BR BKN005
     FM170600 21011KT P6SM VCSH SCT010 BKN050
     FM171900 22014KT P6SM SCT030=



000
FTUS45 KBYZ 170138 AAA
TAFLVM
TAF AMD
KLVM 170138Z 1702/1724 VRB03KT P6SM SCT005 BKN008
      TEMPO 1702/1706 10007KT 6SM BR BKN005
     FM170600 21011KT P6SM VCSH SCT010 BKN050
     FM171900 22014KT P6SM SCT030=



000
FTUS45 KBYZ 170138 AAA
TAFLVM
TAF AMD
KLVM 170138Z 1702/1724 VRB03KT P6SM SCT005 BKN008
      TEMPO 1702/1706 10007KT 6SM BR BKN005
     FM170600 21011KT P6SM VCSH SCT010 BKN050
     FM171900 22014KT P6SM SCT030=



000
FTUS45 KBYZ 170121 AAA
TAFMLS
TAF AMD
KMLS 170121Z 1701/1724 15008KT P6SM OVC009
     FM170600 15009KT 6SM BR BKN005 OVC012
     FM171400 VRB03KT P6SM BKN015 OVC100
     FM172000 VRB03KT P6SM -SN OVC015=



000
FTUS45 KBYZ 170121 AAA
TAFMLS
TAF AMD
KMLS 170121Z 1701/1724 15008KT P6SM OVC009
     FM170600 15009KT 6SM BR BKN005 OVC012
     FM171400 VRB03KT P6SM BKN015 OVC100
     FM172000 VRB03KT P6SM -SN OVC015=



000
FTUS45 KBYZ 162320
TAFBIL
TAF
KBIL 162320Z 1700/1724 VRB05KT 6SM BR OVC005
     FM170600 22005KT 1SM BR BKN003
     FM171800 22006KT 6SM BR BKN005=



000
FTUS45 KBYZ 162320
TAFLVM
TAF
KLVM 162320Z 1700/1724 10005KT P6SM BKN003
     FM170600 21011KT P6SM VCSH SCT010 BKN050
     FM171900 22014KT P6SM SCT030=



000
FTUS45 KBYZ 162320
TAFSHR
TAF
KSHR 162320Z 1700/1724 VRB05KT P6SM VCFG OVC005
     FM171500 VRB03KT P6SM BKN010=



000
FTUS45 KBYZ 162320
TAFMLS
TAF
KMLS 162320Z 1700/1724 15008KT P6SM OVC012
     FM170600 15009KT 6SM BR BKN005 OVC012
     FM171400 VRB03KT P6SM BKN015 OVC100
     FM172000 VRB03KT P6SM -SN OVC015=



000
FTUS45 KBYZ 162320
TAFBIL
TAF
KBIL 162320Z 1700/1724 VRB05KT 6SM BR OVC005
     FM170600 22005KT 1SM BR BKN003
     FM171800 22006KT 6SM BR BKN005=



000
FTUS45 KBYZ 162320
TAFLVM
TAF
KLVM 162320Z 1700/1724 10005KT P6SM BKN003
     FM170600 21011KT P6SM VCSH SCT010 BKN050
     FM171900 22014KT P6SM SCT030=



000
FTUS45 KBYZ 162320
TAFSHR
TAF
KSHR 162320Z 1700/1724 VRB05KT P6SM VCFG OVC005
     FM171500 VRB03KT P6SM BKN010=



000
FTUS45 KBYZ 162320
TAFMLS
TAF
KMLS 162320Z 1700/1724 15008KT P6SM OVC012
     FM170600 15009KT 6SM BR BKN005 OVC012
     FM171400 VRB03KT P6SM BKN015 OVC100
     FM172000 VRB03KT P6SM -SN OVC015=



000
FTUS45 KBYZ 162109 AAB
TAFSHR
TAF AMD
KSHR 162109Z 1621/1718 19006KT P6SM OVC005
     FM171500 VRB03KT P6SM BKN015=



000
FTUS45 KBYZ 162109 AAB
TAFSHR
TAF AMD
KSHR 162109Z 1621/1718 19006KT P6SM OVC005
     FM171500 VRB03KT P6SM BKN015=



000
FTUS45 KBYZ 162109 AAB
TAFSHR
TAF AMD
KSHR 162109Z 1621/1718 19006KT P6SM OVC005
     FM171500 VRB03KT P6SM BKN015=



000
FTUS45 KBYZ 162109 AAB
TAFSHR
TAF AMD
KSHR 162109Z 1621/1718 19006KT P6SM OVC005
     FM171500 VRB03KT P6SM BKN015=



000
FTUS45 KBYZ 162108 AAA
TAFSHR
TAF AMD
KSHR 162108Z 1621/1718 19006KT P6SM OVC010
     FM171500 VRB03KT P6SM BKN015=



000
FTUS45 KBYZ 162108 AAA
TAFSHR
TAF AMD
KSHR 162108Z 1621/1718 19006KT P6SM OVC010
     FM171500 VRB03KT P6SM BKN015=



000
FTUS45 KBYZ 162108 CCA
TAFSHR
TAF COR
KSHR 162108Z 1621/1718 19006KT P6SM OVC005
     FM171500 VRB03KT P6SM BKN015=



000
FTUS45 KBYZ 162108 CCA
TAFSHR
TAF COR
KSHR 162108Z 1621/1718 19006KT P6SM OVC005
     FM171500 VRB03KT P6SM BKN015=



000
FTUS45 KBYZ 162108 CCA
TAFSHR
TAF COR
KSHR 162108Z 1621/1718 19006KT P6SM OVC005
     FM171500 VRB03KT P6SM BKN015=



000
FTUS45 KBYZ 162108 CCA
TAFSHR
TAF COR
KSHR 162108Z 1621/1718 19006KT P6SM OVC005
     FM171500 VRB03KT P6SM BKN015=



000
FTUS45 KBYZ 162107 AAA
TAFMLS
TAF AMD
KMLS 162107Z 1621/1718 15008KT P6SM OVC015
     FM170600 15005KT P6SM OVC012=



000
FTUS45 KBYZ 162107 AAA
TAFMLS
TAF AMD
KMLS 162107Z 1621/1718 15008KT P6SM OVC015
     FM170600 15005KT P6SM OVC012=



000
FTUS45 KBYZ 161950 AAA
TAFBIL
TAF AMD
KBIL 161950Z 1620/1718 14005KT 6SM BR OVC002
     FM170600 14005KT 1SM BR BKN003=



000
FTUS45 KBYZ 161950 AAA
TAFBIL
TAF AMD
KBIL 161950Z 1620/1718 14005KT 6SM BR OVC002
     FM170600 14005KT 1SM BR BKN003=



000
FTUS45 KBYZ 161949 AAA
TAFLVM
TAF AMD
KLVM 161949Z 1620/1718 17005KT P6SM OVC003
     FM170600 18006KT P6SM VCSH SCT010 BKN030=



000
FTUS45 KBYZ 161949 AAA
TAFLVM
TAF AMD
KLVM 161949Z 1620/1718 17005KT P6SM OVC003
     FM170600 18006KT P6SM VCSH SCT010 BKN030=



    US Dept of Commerce
    National Oceanic and Atmospheric Administration
    National Weather Service
    1325 East West Highway
    Silver Spring, MD 20910
    Page Author: NWS Internet Services Team
Disclaimer
Information Quality
Credits
Glossary
Privacy Policy
Freedom of Information Act (FOIA)
About Us
Career Opportunities